createdAt,value
2022-10-20T00:02:07.474Z,99463.59
2022-10-20T00:04:35.388Z,99457.31
2022-10-20T00:07:03.024Z,99461.72
2022-10-20T00:09:30.584Z,99452.22
2022-10-20T00:11:58.333Z,99444.31
2022-10-20T00:14:26.059Z,99445.56
2022-10-20T00:16:55.095Z,99439.44
2022-10-20T00:19:22.712Z,99436.00
2022-10-20T00:21:50.456Z,99424.66
2022-10-20T00:24:19.841Z,99439.66
2022-10-20T00:26:47.534Z,99437.94
2022-10-20T00:29:15.277Z,99439.09
2022-10-20T00:31:43.527Z,99431.38
2022-10-20T00:34:12.801Z,99438.31
2022-10-20T00:36:40.553Z,99434.09
2022-10-20T00:39:08.686Z,99432.19
2022-10-20T00:41:37.086Z,99436.53
2022-10-20T00:44:43.199Z,99433.94
2022-10-20T00:47:11.681Z,99430.69
2022-10-20T00:49:41.184Z,99423.53
2022-10-20T00:52:09.099Z,99421.81
2022-10-20T00:54:36.970Z,99409.69
2022-10-20T00:57:04.632Z,99407.41
2022-10-20T00:59:34.868Z,99406.47
2022-10-20T01:02:03.708Z,99401.19
2022-10-20T01:04:32.248Z,99391.97
2022-10-20T01:07:01.271Z,99398.63
2022-10-20T01:09:29.049Z,99389.81
2022-10-20T01:12:01.992Z,99382.09
2022-10-20T01:14:36.657Z,99381.47
2022-10-20T01:17:12.496Z,99378.16
2022-10-20T01:20:27.896Z,99378.31
2022-10-20T01:23:28.591Z,99379.28
2022-10-20T01:26:17.136Z,99377.59
2022-10-20T01:28:48.300Z,99388.13
2022-10-20T01:31:23.502Z,99390.75
2022-10-20T01:33:56.143Z,99387.22
2022-10-20T01:36:29.309Z,99386.31
2022-10-20T01:39:01.874Z,99380.09
2022-10-20T01:41:34.095Z,99371.69
2022-10-20T01:44:04.908Z,99366.59
2022-10-20T01:46:33.558Z,99367.28
2022-10-20T01:49:02.207Z,99373.81
2022-10-20T01:51:29.857Z,99366.00
2022-10-20T01:53:57.534Z,99368.38
2022-10-20T01:56:28.481Z,99353.81
2022-10-20T01:59:12.102Z,99352.00
2022-10-20T02:01:51.637Z,99341.72
2022-10-20T02:04:25.651Z,99339.59
2022-10-20T02:06:58.181Z,99330.91
2022-10-20T02:09:31.784Z,99325.00
2022-10-20T02:12:02.717Z,99314.19
2022-10-20T02:14:33.079Z,99317.06
2022-10-20T02:17:02.051Z,99322.31
2022-10-20T02:19:32.721Z,99318.94
2022-10-20T02:22:00.415Z,99307.66
2022-10-20T02:24:31.115Z,99323.03
2022-10-20T02:27:00.127Z,99322.38
2022-10-20T02:29:32.536Z,99325.97
2022-10-20T02:32:00.386Z,99313.94
2022-10-20T02:34:28.431Z,99319.19
2022-10-20T02:36:58.051Z,99322.44
2022-10-20T02:39:25.723Z,99326.72
2022-10-20T02:41:54.524Z,99318.69
2022-10-20T02:44:22.744Z,99301.19
2022-10-20T02:46:51.801Z,99298.81
2022-10-20T02:49:20.404Z,99302.53
2022-10-20T02:51:48.067Z,99313.88
2022-10-20T02:54:15.571Z,99325.38
2022-10-20T02:56:43.161Z,99322.75
2022-10-20T02:59:13.683Z,99330.84
2022-10-20T03:01:41.415Z,99311.53
2022-10-20T03:04:10.360Z,99318.34
2022-10-20T03:06:37.909Z,99311.31
2022-10-20T03:09:05.686Z,99309.75
2022-10-20T03:11:33.395Z,99304.63
2022-10-20T03:14:00.918Z,99317.03
2022-10-20T03:16:28.489Z,99313.75
2022-10-20T03:18:59.926Z,99297.19
2022-10-20T03:21:32.352Z,99299.81
2022-10-20T03:23:59.993Z,99308.41
2022-10-20T03:26:27.629Z,99308.50
2022-10-20T03:28:55.188Z,99286.69
2022-10-20T03:31:22.803Z,99276.16
2022-10-20T03:33:50.414Z,99278.84
2022-10-20T03:36:18.104Z,99277.34
2022-10-20T03:38:46.972Z,99272.84
2022-10-20T03:41:14.593Z,99278.25
2022-10-20T03:43:42.155Z,99281.38
2022-10-20T03:46:11.579Z,99272.44
2022-10-20T03:48:40.639Z,99260.88
2022-10-20T03:51:09.017Z,99262.53
2022-10-20T03:53:36.736Z,99277.59
2022-10-20T03:56:08.400Z,99266.13
2022-10-20T03:58:36.364Z,99269.72
2022-10-20T04:01:06.274Z,99266.88
2022-10-20T04:03:33.833Z,99278.63
2022-10-20T04:06:01.806Z,99281.13
2022-10-20T04:08:29.386Z,99275.00
2022-10-20T04:10:56.956Z,99278.34
2022-10-20T04:13:25.923Z,99269.66
2022-10-20T04:15:53.484Z,99264.66
2022-10-20T04:18:21.064Z,99261.78
2022-10-20T04:20:49.293Z,99253.94
2022-10-20T04:23:16.887Z,99267.78
2022-10-20T04:25:48.353Z,99261.03
2022-10-20T04:28:17.205Z,99247.09
2022-10-20T04:30:46.838Z,99242.84
2022-10-20T04:33:14.708Z,99237.44
2022-10-20T04:35:42.493Z,99231.16
2022-10-20T04:38:10.216Z,99226.06
2022-10-20T04:40:37.752Z,99223.34
2022-10-20T04:43:05.330Z,99212.28
2022-10-20T04:45:32.939Z,99210.38
2022-10-20T04:48:02.197Z,99209.56
2022-10-20T04:50:29.769Z,99204.16
2022-10-20T04:52:57.294Z,99220.81
2022-10-20T04:55:24.862Z,99209.66
2022-10-20T04:57:52.409Z,99211.31
2022-10-20T05:00:19.981Z,99202.34
2022-10-20T05:02:47.500Z,99199.09
2022-10-20T05:05:16.574Z,99189.50
2022-10-20T05:07:44.359Z,99179.06
2022-10-20T05:10:11.872Z,99177.19
2022-10-20T05:12:39.560Z,99174.94
2022-10-20T05:15:08.107Z,99178.16
2022-10-20T05:17:35.701Z,99176.44
2022-10-20T05:20:03.243Z,99164.94
2022-10-20T05:22:33.140Z,99166.63
2022-10-20T05:25:12.768Z,99171.66
2022-10-20T05:27:48.365Z,99173.22
2022-10-20T05:30:16.024Z,99165.19
2022-10-20T05:32:43.588Z,99166.00
2022-10-20T05:35:11.190Z,99176.50
2022-10-20T05:37:40.102Z,99171.41
2022-10-20T05:40:09.361Z,99161.00
2022-10-20T05:42:37.232Z,99166.16
2022-10-20T05:45:05.524Z,99159.97
2022-10-20T05:47:34.563Z,99153.78
2022-10-20T05:50:02.392Z,99159.38
2022-10-20T05:52:30.005Z,99166.25
2022-10-20T05:54:59.449Z,99171.59
2022-10-20T05:57:27.003Z,99167.91
2022-10-20T05:59:54.592Z,99161.09
2022-10-20T06:02:22.298Z,99159.78
2022-10-20T06:04:49.849Z,99154.03
2022-10-20T06:07:17.395Z,99157.47
2022-10-20T06:09:44.981Z,99169.63
2022-10-20T06:12:14.310Z,99170.94
2022-10-20T06:14:41.905Z,99184.78
2022-10-20T06:17:10.380Z,99184.63
2022-10-20T06:19:38.056Z,99190.63
2022-10-20T06:22:06.882Z,99203.44
2022-10-20T06:24:34.773Z,99213.84
2022-10-20T06:27:02.325Z,99211.44
2022-10-20T06:29:31.325Z,99210.97
2022-10-20T06:31:58.945Z,99205.97
2022-10-20T06:34:27.102Z,99204.09
2022-10-20T06:36:54.833Z,99192.13
2022-10-20T06:39:23.801Z,99207.38
2022-10-20T06:41:52.736Z,99215.81
2022-10-20T06:44:21.087Z,99227.13
2022-10-20T06:46:52.178Z,99225.75
2022-10-20T06:49:21.078Z,99207.63
2022-10-20T06:51:48.717Z,99219.78
2022-10-20T06:54:16.266Z,99237.22
2022-10-20T06:56:43.804Z,99225.78
2022-10-20T06:59:11.388Z,99219.53
2022-10-20T07:01:40.264Z,99225.28
2022-10-20T07:04:11.949Z,99205.00
2022-10-20T07:06:41.111Z,99192.91
2022-10-20T07:09:12.387Z,99195.41
2022-10-20T07:11:40.115Z,99202.28
2022-10-20T07:14:07.723Z,99188.00
2022-10-20T07:16:35.928Z,99195.13
2022-10-20T07:19:04.781Z,99174.63
2022-10-20T07:21:38.187Z,99176.28
2022-10-20T07:24:09.326Z,99183.16
2022-10-20T07:26:39.160Z,99172.88
2022-10-20T07:29:06.960Z,99197.34
2022-10-20T07:31:36.501Z,99195.38
2022-10-20T07:34:23.463Z,99194.69
2022-10-20T07:36:54.395Z,99201.28
2022-10-20T07:39:21.924Z,99212.69
2022-10-20T07:41:49.589Z,99221.56
2022-10-20T07:44:17.572Z,99223.00
2022-10-20T07:46:45.159Z,99210.91
2022-10-20T07:52:01.799Z,99196.19
2022-10-20T07:54:29.343Z,99196.38
2022-10-20T07:56:56.963Z,99197.47
2022-10-20T07:59:24.569Z,99209.53
2022-10-20T08:01:54.732Z,99207.06
2022-10-20T08:04:25.041Z,99194.59
2022-10-20T08:06:52.654Z,99183.88
2022-10-20T08:09:21.560Z,99180.47
2022-10-20T08:11:52.762Z,99190.59
2022-10-20T08:14:23.026Z,99196.19
2022-10-20T08:16:50.641Z,99181.06
2022-10-20T08:19:25.032Z,99181.50
2022-10-20T08:21:53.086Z,99179.97
2022-10-20T08:24:22.190Z,99173.34
2022-10-20T08:26:49.737Z,99176.47
2022-10-20T08:29:17.273Z,99199.94
2022-10-20T08:31:44.863Z,99185.78
2022-10-20T08:34:12.591Z,99169.97
2022-10-20T08:36:40.211Z,99165.31
2022-10-20T08:39:07.792Z,99159.63
2022-10-20T08:42:03.187Z,99177.59
2022-10-20T08:44:29.347Z,99177.38
2022-10-20T08:46:57.227Z,99181.25
2022-10-20T08:49:27.102Z,99183.97
2022-10-20T08:51:54.685Z,99177.19
2022-10-20T08:54:22.241Z,99193.47
2022-10-20T08:56:52.640Z,99185.34
2022-10-20T08:59:27.428Z,99183.06
2022-10-20T09:01:55.516Z,99166.94
2022-10-20T09:04:25.221Z,99161.84
2022-10-20T09:06:55.652Z,99175.56
2022-10-20T09:09:24.017Z,99173.81
2022-10-20T09:11:53.540Z,99171.84
2022-10-20T09:14:21.118Z,99178.25
2022-10-20T09:16:59.682Z,99178.25
2022-10-20T09:19:29.098Z,99166.56
2022-10-20T09:21:58.916Z,99170.84
2022-10-20T09:24:30.000Z,99160.00
2022-10-20T09:27:19.036Z,99169.88
2022-10-20T09:29:46.605Z,99178.03
2022-10-20T09:35:20.727Z,99177.78
2022-10-20T09:37:53.763Z,99169.09
2022-10-20T09:40:21.848Z,99157.16
2022-10-20T09:42:54.589Z,99147.22
2022-10-20T09:45:23.763Z,99161.91
2022-10-20T09:47:53.513Z,99165.78
2022-10-20T09:50:24.800Z,99162.63
2022-10-20T09:52:52.498Z,99158.97
2022-10-20T09:55:28.131Z,99161.78
2022-10-20T09:57:58.351Z,99158.81
2022-10-20T10:00:43.084Z,99158.22
2022-10-20T10:03:21.340Z,99161.00
2022-10-20T10:05:51.063Z,99167.53
2022-10-20T10:08:19.361Z,99166.44
2022-10-20T10:10:58.299Z,99157.19
2022-10-20T10:13:31.606Z,99150.50
2022-10-20T10:16:05.383Z,99149.03
2022-10-20T10:18:33.237Z,99148.19
2022-10-20T10:21:03.216Z,99134.09
2022-10-20T10:23:32.037Z,99136.28
2022-10-20T10:26:02.222Z,99126.28
2022-10-20T10:28:37.267Z,99117.03
2022-10-20T10:31:23.812Z,99119.53
2022-10-20T10:33:54.928Z,99109.75
2022-10-20T10:36:34.823Z,99112.66
2022-10-20T10:39:03.100Z,99111.13
2022-10-20T10:41:47.508Z,99115.66
2022-10-20T10:44:25.274Z,99096.25
2022-10-20T10:46:58.322Z,99084.72
2022-10-20T10:49:44.338Z,99081.41
2022-10-20T10:52:22.982Z,99075.00
2022-10-20T10:54:58.600Z,99086.50
2022-10-20T10:57:32.287Z,99080.00
2022-10-20T11:00:04.755Z,99083.34
2022-10-20T11:02:46.068Z,99092.50
2022-10-20T11:05:28.589Z,99085.66
2022-10-20T11:08:05.220Z,99092.16
2022-10-20T11:10:41.485Z,99082.78
2022-10-20T11:13:26.949Z,99093.44
2022-10-20T11:16:11.374Z,99090.44
2022-10-20T11:19:11.579Z,99111.03
2022-10-20T11:21:48.328Z,99107.66
2022-10-20T11:24:25.625Z,99106.13
2022-10-20T11:26:59.361Z,99098.19
2022-10-20T11:29:30.614Z,99097.78
2022-10-20T11:32:07.611Z,99099.56
2022-10-20T11:34:38.505Z,99098.47
2022-10-20T11:37:13.914Z,99100.59
2022-10-20T11:39:44.079Z,99097.00
2022-10-20T11:42:19.979Z,99104.09
2022-10-20T11:44:48.875Z,99103.53
2022-10-20T11:47:21.195Z,99110.19
2022-10-20T11:49:48.764Z,99101.63
2022-10-20T11:52:36.765Z,99104.47
2022-10-20T11:55:16.355Z,99093.94
2022-10-20T11:57:57.668Z,99087.31
2022-10-20T12:00:38.224Z,99086.28
2022-10-20T12:03:34.991Z,99077.91
2022-10-20T12:06:37.865Z,99076.44
2022-10-20T12:09:22.757Z,99085.00
2022-10-20T12:11:56.522Z,99090.81
2022-10-20T12:14:27.273Z,99088.78
2022-10-20T12:17:14.767Z,99082.78
2022-10-20T12:19:44.345Z,99086.28
2022-10-20T12:22:42.470Z,99083.97
2022-10-20T12:25:20.154Z,99079.63
2022-10-20T12:27:47.734Z,99082.34
2022-10-20T12:30:51.620Z,99092.34
2022-10-20T12:33:20.480Z,99086.28
2022-10-20T12:36:23.607Z,99076.00
2022-10-20T12:38:52.846Z,99075.34
2022-10-20T12:41:27.162Z,99056.72
2022-10-20T12:43:55.349Z,99051.41
2022-10-20T12:46:24.501Z,99045.44
2022-10-20T12:48:57.354Z,99031.19
2022-10-20T12:51:34.085Z,99026.06
2022-10-20T12:54:05.948Z,99032.03
2022-10-20T12:56:37.540Z,99031.44
2022-10-20T12:59:21.785Z,99028.78
2022-10-20T13:02:20.954Z,99019.91
2022-10-20T13:04:56.045Z,99021.47
2022-10-20T13:08:01.811Z,99012.94
2022-10-20T13:10:30.809Z,99016.69
2022-10-20T13:13:45.390Z,99009.69
2022-10-20T13:16:19.184Z,99010.19
2022-10-20T13:18:49.731Z,99007.31
2022-10-20T13:21:31.709Z,98997.91
2022-10-20T13:24:15.172Z,99024.47
2022-10-20T13:26:51.231Z,99012.09
2022-10-20T13:29:25.608Z,99017.47
2022-10-20T13:32:04.212Z,99018.75
2022-10-20T13:34:36.817Z,99022.31
2022-10-20T13:37:19.135Z,99012.00
2022-10-20T13:39:58.089Z,99022.47
2022-10-20T13:42:43.769Z,99034.06
2022-10-20T13:45:18.466Z,99017.28
2022-10-20T13:47:53.239Z,99027.94
2022-10-20T13:50:24.380Z,99024.88
2022-10-20T13:52:53.716Z,99023.16
2022-10-20T13:55:24.243Z,99007.78
2022-10-20T13:57:55.495Z,99015.13
2022-10-20T14:00:26.354Z,99021.66
2022-10-20T14:02:56.678Z,99026.50
2022-10-20T14:05:25.236Z,99033.50
2022-10-20T14:07:53.227Z,99044.16
2022-10-20T14:10:30.683Z,99044.25
2022-10-20T14:12:58.320Z,99051.47
2022-10-20T14:15:30.377Z,99060.94
2022-10-20T14:18:00.471Z,99067.41
2022-10-20T14:20:29.093Z,99073.41
2022-10-20T14:22:58.188Z,99074.03
2022-10-20T14:25:27.993Z,99054.84
2022-10-20T14:27:56.503Z,99053.97
2022-10-20T14:30:26.516Z,99050.47
2022-10-20T14:32:54.684Z,99047.75
2022-10-20T14:35:29.813Z,99054.06
2022-10-20T14:38:00.355Z,99039.34
2022-10-20T14:40:31.304Z,99035.22
2022-10-20T14:43:03.092Z,99021.94
2022-10-20T14:47:59.929Z,99004.78
2022-10-20T14:50:33.459Z,98989.16
2022-10-20T14:53:33.400Z,98999.28
2022-10-20T14:56:03.097Z,99021.81
2022-10-20T14:58:33.850Z,99019.41
2022-10-20T15:01:26.228Z,99020.78
2022-10-20T15:06:40.486Z,98994.44
2022-10-20T15:09:18.104Z,99001.13
2022-10-20T15:11:47.133Z,99021.88
2022-10-20T15:14:16.427Z,99025.38
2022-10-20T15:16:46.177Z,99026.06
2022-10-20T15:19:29.187Z,99006.50
2022-10-20T15:22:01.151Z,99007.81
2022-10-20T15:24:29.171Z,99008.66
2022-10-20T15:26:58.583Z,99010.84
2022-10-20T15:29:26.899Z,99002.53
2022-10-20T15:31:54.689Z,99011.94
2022-10-20T15:34:22.509Z,99007.66
2022-10-20T15:36:51.126Z,98999.19
2022-10-20T15:39:19.175Z,98994.69
2022-10-20T15:41:49.006Z,98977.13
2022-10-20T15:44:22.334Z,98957.09
2022-10-20T15:46:50.938Z,98959.66
2022-10-20T15:49:18.486Z,98968.53
2022-10-20T15:51:47.501Z,98981.56
2022-10-20T15:54:16.918Z,98984.59
2022-10-20T15:56:44.685Z,98976.28
2022-10-20T15:59:12.214Z,98965.03
2022-10-20T16:01:41.158Z,98957.72
2022-10-20T16:04:17.634Z,98967.44
2022-10-20T16:06:45.289Z,98958.13
2022-10-20T16:09:15.788Z,98962.25
2022-10-20T16:11:44.121Z,98960.13
2022-10-20T16:14:11.773Z,98955.16
2022-10-20T16:16:40.731Z,98955.41
2022-10-20T16:19:08.374Z,98961.38
2022-10-20T16:21:35.961Z,98966.28
2022-10-20T16:24:03.624Z,98944.16
2022-10-20T16:26:31.157Z,98952.59
2022-10-20T16:28:58.755Z,98952.84
2022-10-20T16:31:26.269Z,98958.44
2022-10-20T16:33:55.249Z,98955.72
2022-10-20T16:36:22.807Z,98954.63
2022-10-20T16:38:55.569Z,98953.84
2022-10-20T16:41:23.145Z,98963.50
2022-10-20T16:43:50.790Z,98958.91
2022-10-20T16:46:18.581Z,98944.06
2022-10-20T16:48:48.047Z,98944.22
2022-10-20T16:51:17.766Z,98947.88
2022-10-20T16:53:45.516Z,98954.00
2022-10-20T16:56:15.433Z,98958.38
2022-10-20T16:58:45.943Z,98960.06
2022-10-20T17:01:14.517Z,98954.88
2022-10-20T17:06:18.901Z,98953.94
2022-10-20T17:08:46.922Z,98942.13
2022-10-20T17:11:16.926Z,98939.03
2022-10-20T17:13:44.645Z,98943.44
2022-10-20T17:16:14.279Z,98936.16
2022-10-20T17:18:42.064Z,98944.38
2022-10-20T17:21:10.149Z,98935.38
2022-10-20T17:23:42.663Z,98923.03
2022-10-20T17:26:13.218Z,98938.19
2022-10-20T17:28:40.921Z,98939.66
2022-10-20T17:31:09.939Z,98920.16
2022-10-20T17:33:38.349Z,98923.13
2022-10-20T17:36:07.189Z,98933.53
2022-10-20T17:38:35.390Z,98933.53
2022-10-20T17:41:09.379Z,98932.75
2022-10-20T17:43:37.147Z,98909.00
2022-10-20T17:46:06.743Z,98888.56
2022-10-20T17:48:35.557Z,98851.56
2022-10-20T17:51:04.555Z,98841.69
2022-10-20T17:53:32.750Z,98876.84
2022-10-20T17:56:02.391Z,98891.53
2022-10-20T17:58:31.586Z,98910.63
2022-10-20T18:01:08.679Z,98927.16
2022-10-20T18:03:36.480Z,98931.28
2022-10-20T18:06:08.280Z,98929.88
2022-10-20T18:08:35.887Z,98941.19
2022-10-20T18:11:03.743Z,98936.78
2022-10-20T18:13:32.590Z,98935.78
2022-10-20T18:16:00.152Z,98940.44
2022-10-20T18:18:27.696Z,98948.44
2022-10-20T18:20:56.162Z,98948.28
2022-10-20T18:23:24.052Z,98943.00
2022-10-20T18:25:51.587Z,98944.31
2022-10-20T18:28:23.312Z,98942.69
2022-10-20T18:30:52.609Z,98934.91
2022-10-20T18:33:20.168Z,98919.00
2022-10-20T18:35:47.709Z,98909.31
2022-10-20T18:38:15.228Z,98912.25
2022-10-20T18:40:42.796Z,98912.34
2022-10-20T18:43:10.306Z,98909.78
2022-10-20T18:45:37.882Z,98911.41
2022-10-20T18:48:07.189Z,98921.19
2022-10-20T18:50:34.725Z,98923.66
2022-10-20T18:53:02.308Z,98916.59
2022-10-20T18:55:29.867Z,98898.22
2022-10-20T18:57:57.429Z,98887.25
2022-10-20T19:00:24.975Z,98887.88
2022-10-20T19:02:55.759Z,98887.19
2022-10-20T19:05:26.868Z,98883.59
2022-10-20T19:07:54.498Z,98884.25
2022-10-20T19:10:22.026Z,98898.34
2022-10-20T19:12:49.571Z,98896.50
2022-10-20T19:15:18.360Z,98889.44
2022-10-20T19:17:45.920Z,98878.03
2022-10-20T19:20:13.581Z,98871.19
2022-10-20T19:22:43.917Z,98868.31
2022-10-20T19:25:11.499Z,98871.59
2022-10-20T19:27:39.076Z,98870.28
2022-10-20T19:30:07.203Z,98850.88
2022-10-20T19:32:39.008Z,98853.97
2022-10-20T19:35:09.269Z,98844.66
2022-10-20T19:37:36.892Z,98835.03
2022-10-20T19:40:06.552Z,98825.41
2022-10-20T19:42:34.286Z,98829.91
2022-10-20T19:45:02.046Z,98829.06
2022-10-20T19:47:29.641Z,98837.59
2022-10-20T19:49:57.185Z,98842.72
2022-10-20T19:52:24.709Z,98832.31
2022-10-20T19:54:52.406Z,98832.06
2022-10-20T19:57:21.280Z,98831.91
2022-10-20T19:59:49.116Z,98830.13
2022-10-20T20:02:16.746Z,98821.38
2022-10-20T20:04:44.366Z,98825.19
2022-10-20T20:07:11.969Z,98829.34
2022-10-20T20:09:39.588Z,98834.25
2022-10-20T20:12:08.618Z,98847.28
2022-10-20T20:14:37.500Z,98856.03
2022-10-20T20:17:07.377Z,98837.34
2022-10-20T20:19:37.842Z,98824.78
2022-10-20T20:22:05.443Z,98843.69
2022-10-20T20:24:33.313Z,98847.81
2022-10-20T20:27:00.976Z,98839.97
2022-10-20T20:29:28.615Z,98843.47
2022-10-20T20:31:57.557Z,98834.53
2022-10-20T20:34:25.432Z,98845.78
2022-10-20T20:36:53.013Z,98842.03
2022-10-20T20:39:20.696Z,98845.44
2022-10-20T20:41:49.264Z,98841.03
2022-10-20T20:44:17.066Z,98843.59
2022-10-20T20:46:44.656Z,98856.78
2022-10-20T20:49:13.991Z,98839.84
2022-10-20T20:51:41.616Z,98828.44
2022-10-20T20:54:10.123Z,98829.44
2022-10-20T20:56:37.663Z,98823.22
2022-10-20T20:59:05.319Z,98824.94
2022-10-20T21:01:33.043Z,98820.69
2022-10-20T21:04:02.359Z,98824.00
2022-10-20T21:07:00.207Z,98816.84
2022-10-20T21:09:19.131Z,98808.16
2022-10-20T21:11:48.825Z,98804.50
2022-10-20T21:14:16.431Z,98790.28
2022-10-20T21:16:44.012Z,98782.69
2022-10-20T21:19:11.912Z,98774.59
2022-10-20T21:21:43.476Z,98765.91
2022-10-20T21:24:12.604Z,98765.06
2022-10-20T21:26:40.364Z,98769.31
2022-10-20T21:29:08.016Z,98771.72
2022-10-20T21:31:35.610Z,98772.22
2022-10-20T21:34:04.789Z,98788.75
2022-10-20T21:36:34.740Z,98791.38
2022-10-20T21:39:04.896Z,98795.31
2022-10-20T21:41:35.600Z,98789.78
2022-10-20T21:44:04.758Z,98790.47
2022-10-20T21:46:34.417Z,98790.56
2022-10-20T21:49:03.696Z,98782.53
2022-10-20T21:51:35.054Z,98778.28
2022-10-20T21:54:06.034Z,98785.63
2022-10-20T21:56:36.280Z,98798.91
2022-10-20T21:59:04.409Z,98791.59
2022-10-20T22:01:32.123Z,98781.09
2022-10-20T22:03:59.968Z,98782.97
2022-10-20T22:06:28.498Z,98794.13
2022-10-20T22:08:57.982Z,98803.94
2022-10-20T22:11:28.548Z,98794.91
2022-10-20T22:13:56.594Z,98781.88
2022-10-20T22:16:26.796Z,98781.88
2022-10-20T22:18:57.907Z,98775.13
2022-10-20T22:21:25.891Z,98776.94
2022-10-20T22:23:54.630Z,98777.88
2022-10-20T22:26:22.462Z,98780.59
2022-10-20T22:28:52.487Z,98782.00
2022-10-20T22:31:20.265Z,98793.75
2022-10-20T22:33:47.959Z,98792.03
2022-10-20T22:36:15.638Z,98793.53
2022-10-20T22:38:43.332Z,98802.72
2022-10-20T22:41:11.850Z,98797.47
2022-10-20T22:43:40.052Z,98790.63
2022-10-20T22:46:09.438Z,98779.75
2022-10-20T22:48:37.493Z,98782.63
2022-10-20T22:51:06.226Z,98791.72
2022-10-20T22:53:33.927Z,98798.34
2022-10-20T22:56:06.447Z,98794.66
2022-10-20T22:58:34.268Z,98800.63
2022-10-20T23:01:06.066Z,98797.78
2022-10-20T23:03:35.181Z,98808.38
2022-10-20T23:06:07.009Z,98807.34
2022-10-20T23:08:38.827Z,98812.63
2022-10-20T23:11:06.406Z,98817.84
2022-10-20T23:13:33.987Z,98817.94
2022-10-20T23:16:01.955Z,98823.03
2022-10-20T23:18:29.767Z,98829.09
2022-10-20T23:20:58.799Z,98822.94
2022-10-20T23:23:26.520Z,98822.00
2022-10-20T23:25:54.092Z,98824.47
2022-10-20T23:28:22.032Z,98805.25
2022-10-20T23:30:49.668Z,98787.59
2022-10-20T23:33:17.425Z,98775.94
2022-10-20T23:35:47.856Z,98755.53
2022-10-20T23:38:16.852Z,98734.63
2022-10-20T23:40:44.493Z,98706.44
2022-10-20T23:43:12.086Z,98712.00
2022-10-20T23:45:39.806Z,98706.69
2022-10-20T23:48:07.358Z,98682.69
2022-10-20T23:50:35.011Z,98694.59
2022-10-20T23:53:02.739Z,98699.41
2022-10-20T23:55:31.703Z,98716.63
2022-10-20T23:57:59.305Z,98725.66
